sensor_id;sensor_type;location;lat;lon;timestamp;pressure;altitude;pressure_sealevel;temperature;humidity
77572;BME280;67214;47.454;18.966;2024-03-08T00:00:59;100530.12;;;4.94;99.04
77572;BME280;67214;47.454;18.966;2024-03-08T00:03:26;100530.75;;;4.99;99.43
77572;BME280;67214;47.454;18.966;2024-03-08T00:05:54;100532.45;;;5.00;99.22
77572;BME280;67214;47.454;18.966;2024-03-08T00:08:21;100515.77;;;5.01;99.28
77572;BME280;67214;47.454;18.966;2024-03-08T00:10:48;100531.04;;;5.01;98.79
77572;BME280;67214;47.454;18.966;2024-03-08T00:13:15;100523.72;;;4.99;98.97
77572;BME280;67214;47.454;18.966;2024-03-08T00:15:41;100517.77;;;4.96;99.12
77572;BME280;67214;47.454;18.966;2024-03-08T00:18:08;100522.17;;;4.95;99.41
77572;BME280;67214;47.454;18.966;2024-03-08T00:20:36;100527.04;;;4.94;99.60
77572;BME280;67214;47.454;18.966;2024-03-08T00:23:02;100514.45;;;4.92;99.87
77572;BME280;67214;47.454;18.966;2024-03-08T00:25:29;100520.01;;;4.95;100.00
77572;BME280;67214;47.454;18.966;2024-03-08T00:27:56;100510.64;;;4.98;98.99
77572;BME280;67214;47.454;18.966;2024-03-08T00:30:23;100519.22;;;5.01;99.22
77572;BME280;67214;47.454;18.966;2024-03-08T00:32:50;100520.69;;;4.98;97.98
77572;BME280;67214;47.454;18.966;2024-03-08T00:35:17;100514.82;;;4.93;98.17
77572;BME280;67214;47.454;18.966;2024-03-08T00:37:44;100514.30;;;4.95;98.44
77572;BME280;67214;47.454;18.966;2024-03-08T00:40:14;100518.52;;;4.98;98.67
77572;BME280;67214;47.454;18.966;2024-03-08T00:42:41;100520.47;;;4.94;98.92
77572;BME280;67214;47.454;18.966;2024-03-08T00:45:09;100512.19;;;4.93;98.76
77572;BME280;67214;47.454;18.966;2024-03-08T00:47:36;100507.95;;;4.91;98.66
77572;BME280;67214;47.454;18.966;2024-03-08T00:50:03;100511.44;;;4.91;98.97
77572;BME280;67214;47.454;18.966;2024-03-08T00:52:30;100513.60;;;4.92;99.61
77572;BME280;67214;47.454;18.966;2024-03-08T00:54:57;100510.28;;;4.97;99.61
77572;BME280;67214;47.454;18.966;2024-03-08T00:57:23;100511.73;;;4.94;99.84
77572;BME280;67214;47.454;18.966;2024-03-08T00:59:50;100507.16;;;4.97;98.77
77572;BME280;67214;47.454;18.966;2024-03-08T01:02:18;100507.72;;;4.95;98.89
77572;BME280;67214;47.454;18.966;2024-03-08T01:04:45;100502.53;;;4.94;99.32
77572;BME280;67214;47.454;18.966;2024-03-08T01:07:12;100502.07;;;4.94;99.20
77572;BME280;67214;47.454;18.966;2024-03-08T01:09:39;100501.15;;;4.95;98.77
77572;BME280;67214;47.454;18.966;2024-03-08T01:12:07;100495.89;;;4.95;99.30
77572;BME280;67214;47.454;18.966;2024-03-08T01:14:36;100502.30;;;4.98;99.32
77572;BME280;67214;47.454;18.966;2024-03-08T01:17:03;100502.69;;;4.99;99.03
77572;BME280;67214;47.454;18.966;2024-03-08T01:19:29;100499.83;;;5.04;99.53
77572;BME280;67214;47.454;18.966;2024-03-08T01:21:58;100490.30;;;5.01;99.41
77572;BME280;67214;47.454;18.966;2024-03-08T01:24:24;100499.27;;;4.97;99.21
77572;BME280;67214;47.454;18.966;2024-03-08T01:26:51;100499.67;;;4.98;98.97
77572;BME280;67214;47.454;18.966;2024-03-08T01:29:18;100496.05;;;5.01;98.82
77572;BME280;67214;47.454;18.966;2024-03-08T01:31:44;100501.37;;;4.99;98.80
77572;BME280;67214;47.454;18.966;2024-03-08T01:34:11;100506.56;;;5.01;98.94
77572;BME280;67214;47.454;18.966;2024-03-08T01:36:38;100492.11;;;5.01;98.01
77572;BME280;67214;47.454;18.966;2024-03-08T01:39:04;100496.81;;;4.94;98.27
77572;BME280;67214;47.454;18.966;2024-03-08T01:41:33;100495.73;;;4.98;97.91
77572;BME280;67214;47.454;18.966;2024-03-08T01:44:01;100500.76;;;4.94;98.27
77572;BME280;67214;47.454;18.966;2024-03-08T01:46:28;100496.52;;;4.92;97.92
77572;BME280;67214;47.454;18.966;2024-03-08T01:48:55;100501.22;;;4.94;98.38
77572;BME280;67214;47.454;18.966;2024-03-08T01:51:23;100500.76;;;4.94;98.00
77572;BME280;67214;47.454;18.966;2024-03-08T01:53:50;100494.41;;;4.98;97.62
77572;BME280;67214;47.454;18.966;2024-03-08T01:56:17;100497.44;;;4.99;97.38
77572;BME280;67214;47.454;18.966;2024-03-08T01:58:43;100492.57;;;5.00;97.13
77572;BME280;67214;47.454;18.966;2024-03-08T02:01:12;100483.83;;;5.00;97.05
77572;BME280;67214;47.454;18.966;2024-03-08T02:03:41;100491.25;;;5.00;96.70
77572;BME280;67214;47.454;18.966;2024-03-08T02:06:11;100496.12;;;4.99;97.00
77572;BME280;67214;47.454;18.966;2024-03-08T02:08:41;100495.95;;;5.02;96.91
77572;BME280;67214;47.454;18.966;2024-03-08T02:11:09;100484.22;;;5.01;96.96
77572;BME280;67214;47.454;18.966;2024-03-08T02:13:36;100488.77;;;4.97;96.25
77572;BME280;67214;47.454;18.966;2024-03-08T02:16:03;100488.53;;;5.02;96.28
77572;BME280;67214;47.454;18.966;2024-03-08T02:18:30;100495.27;;;4.99;96.51
77572;BME280;67214;47.454;18.966;2024-03-08T02:20:59;100492.02;;;4.94;96.93
77572;BME280;67214;47.454;18.966;2024-03-08T02:23:26;100503.78;;;4.95;96.37
77572;BME280;67214;47.454;18.966;2024-03-08T02:25:53;100484.36;;;4.98;95.82
77572;BME280;67214;47.454;18.966;2024-03-08T02:28:20;100500.86;;;4.93;95.77
77572;BME280;67214;47.454;18.966;2024-03-08T02:30:47;100495.34;;;4.97;95.73
77572;BME280;67214;47.454;18.966;2024-03-08T02:33:15;100491.34;;;4.90;95.05
77572;BME280;67214;47.454;18.966;2024-03-08T02:35:45;100498.23;;;4.93;95.56
77572;BME280;67214;47.454;18.966;2024-03-08T02:38:12;100494.42;;;4.90;95.54
77572;BME280;67214;47.454;18.966;2024-03-08T02:40:41;100501.31;;;4.92;95.95
77572;BME280;67214;47.454;18.966;2024-03-08T02:43:07;100495.50;;;4.94;95.82
77572;BME280;67214;47.454;18.966;2024-03-08T02:45:34;100496.75;;;4.96;95.67
77572;BME280;67214;47.454;18.966;2024-03-08T02:48:01;100490.34;;;4.93;95.79
77572;BME280;67214;47.454;18.966;2024-03-08T02:50:27;100502.07;;;4.94;95.78
77572;BME280;67214;47.454;18.966;2024-03-08T02:52:54;100498.47;;;4.88;95.69
77572;BME280;67214;47.454;18.966;2024-03-08T02:55:22;100497.61;;;4.88;95.77
77572;BME280;67214;47.454;18.966;2024-03-08T02:57:50;100495.27;;;4.90;95.19
77572;BME280;67214;47.454;18.966;2024-03-08T03:00:17;100498.69;;;4.92;95.58
77572;BME280;67214;47.454;18.966;2024-03-08T03:02:45;100491.73;;;4.91;95.02
77572;BME280;67214;47.454;18.966;2024-03-08T03:05:12;100493.34;;;4.94;95.17
77572;BME280;67214;47.454;18.966;2024-03-08T03:07:39;100500.86;;;4.93;95.03
77572;BME280;67214;47.454;18.966;2024-03-08T03:10:06;100493.44;;;4.92;94.42
77572;BME280;67214;47.454;18.966;2024-03-08T03:12:33;100501.15;;;4.95;93.72
77572;BME280;67214;47.454;18.966;2024-03-08T03:15:00;100504.87;;;4.91;94.00
77572;BME280;67214;47.454;18.966;2024-03-08T03:17:27;100512.06;;;4.88;94.66
77572;BME280;67214;47.454;18.966;2024-03-08T03:19:54;100508.02;;;4.89;94.50
77572;BME280;67214;47.454;18.966;2024-03-08T03:22:21;100498.30;;;4.91;94.57
77572;BME280;67214;47.454;18.966;2024-03-08T03:24:48;100501.95;;;4.89;94.83
77572;BME280;67214;47.454;18.966;2024-03-08T03:27:16;100503.16;;;4.90;95.15
77572;BME280;67214;47.454;18.966;2024-03-08T03:29:43;100505.39;;;4.89;95.09
77572;BME280;67214;47.454;18.966;2024-03-08T03:32:13;100504.64;;;4.87;95.22
77572;BME280;67214;47.454;18.966;2024-03-08T03:34:40;100508.73;;;4.93;95.48
77572;BME280;67214;47.454;18.966;2024-03-08T03:37:07;100505.09;;;4.95;95.01
77572;BME280;67214;47.454;18.966;2024-03-08T03:39:39;100514.81;;;5.02;94.50
77572;BME280;67214;47.454;18.966;2024-03-08T03:42:17;100515.90;;;4.98;94.40
77572;BME280;67214;47.454;18.966;2024-03-08T03:44:47;100516.00;;;4.96;94.62
77572;BME280;67214;47.454;18.966;2024-03-08T03:47:15;100516.52;;;4.94;94.84
77572;BME280;67214;47.454;18.966;2024-03-08T03:49:42;100506.02;;;4.94;95.12
77572;BME280;67214;47.454;18.966;2024-03-08T03:52:09;100513.14;;;4.92;95.21
77572;BME280;67214;47.454;18.966;2024-03-08T03:54:36;100513.14;;;4.92;95.12
77572;BME280;67214;47.454;18.966;2024-03-08T03:57:03;100515.77;;;4.92;95.07
77572;BME280;67214;47.454;18.966;2024-03-08T03:59:29;100511.44;;;4.91;95.16
77572;BME280;67214;47.454;18.966;2024-03-08T04:01:57;100516.45;;;4.96;95.22
77572;BME280;67214;47.454;18.966;2024-03-08T04:04:23;100509.95;;;5.03;94.91
77572;BME280;67214;47.454;18.966;2024-03-08T04:06:50;100513.73;;;4.97;94.02
77572;BME280;67214;47.454;18.966;2024-03-08T04:09:17;100511.50;;;4.98;93.93
77572;BME280;67214;47.454;18.966;2024-03-08T04:11:48;100511.05;;;4.90;93.07
77572;BME280;67214;47.454;18.966;2024-03-08T04:14:15;100499.15;;;4.92;93.24
77572;BME280;67214;47.454;18.966;2024-03-08T04:16:42;100505.95;;;4.87;93.83
77572;BME280;67214;47.454;18.966;2024-03-08T04:19:09;100509.66;;;4.92;94.32
77572;BME280;67214;47.454;18.966;2024-03-08T04:21:36;100511.60;;;4.88;94.03
77572;BME280;67214;47.454;18.966;2024-03-08T04:24:03;100512.75;;;4.91;93.68
77572;BME280;67214;47.454;18.966;2024-03-08T04:26:29;100518.08;;;4.90;93.55
77572;BME280;67214;47.454;18.966;2024-03-08T04:28:56;100516.86;;;4.88;93.90
77572;BME280;67214;47.454;18.966;2024-03-08T04:31:23;100505.95;;;4.87;93.98
77572;BME280;67214;47.454;18.966;2024-03-08T04:33:51;100516.17;;;4.85;94.11
77572;BME280;67214;47.454;18.966;2024-03-08T04:36:18;100515.55;;;4.88;94.07
77572;BME280;67214;47.454;18.966;2024-03-08T04:38:45;100515.37;;;4.91;94.15
77572;BME280;67214;47.454;18.966;2024-03-08T04:41:12;100516.40;;;4.89;94.22
77572;BME280;67214;47.454;18.966;2024-03-08T04:43:38;100512.81;;;4.90;94.24
77572;BME280;67214;47.454;18.966;2024-03-08T04:46:05;100520.87;;;4.87;94.32
77572;BME280;67214;47.454;18.966;2024-03-08T04:48:32;100516.07;;;4.86;94.23
77572;BME280;67214;47.454;18.966;2024-03-08T04:50:59;100520.02;;;4.86;94.14
77572;BME280;67214;47.454;18.966;2024-03-08T04:53:25;100525.10;;;4.89;93.98
77572;BME280;67214;47.454;18.966;2024-03-08T04:55:52;100509.60;;;4.85;94.07
77572;BME280;67214;47.454;18.966;2024-03-08T04:58:19;100515.22;;;4.77;94.10
77572;BME280;67214;47.454;18.966;2024-03-08T05:00:46;100520.48;;;4.77;94.27
77572;BME280;67214;47.454;18.966;2024-03-08T05:03:13;100519.95;;;4.79;94.16
77572;BME280;67214;47.454;18.966;2024-03-08T05:05:40;100521.42;;;4.76;94.22
77572;BME280;67214;47.454;18.966;2024-03-08T05:08:07;100519.95;;;4.71;94.51
77572;BME280;67214;47.454;18.966;2024-03-08T05:10:33;100525.04;;;4.74;95.39
77572;BME280;67214;47.454;18.966;2024-03-08T05:13:00;100528.45;;;4.76;95.13
77572;BME280;67214;47.454;18.966;2024-03-08T05:15:27;100526.35;;;4.74;95.37
77572;BME280;67214;47.454;18.966;2024-03-08T05:17:54;100520.80;;;4.71;95.33
77572;BME280;67214;47.454;18.966;2024-03-08T05:20:21;100523.66;;;4.66;95.41
77572;BME280;67214;47.454;18.966;2024-03-08T05:22:48;100528.39;;;4.68;95.79
77572;BME280;67214;47.454;18.966;2024-03-08T05:25:15;100528.13;;;4.73;96.28
77572;BME280;67214;47.454;18.966;2024-03-08T05:27:41;100518.70;;;4.78;96.21
77572;BME280;67214;47.454;18.966;2024-03-08T05:30:08;100529.44;;;4.73;96.10
77572;BME280;67214;47.454;18.966;2024-03-08T05:32:37;100528.98;;;4.74;96.17
77572;BME280;67214;47.454;18.966;2024-03-08T05:35:04;100530.30;;;4.74;96.07
77572;BME280;67214;47.454;18.966;2024-03-08T05:37:32;100529.83;;;4.74;96.09
77572;BME280;67214;47.454;18.966;2024-03-08T05:39:59;100532.69;;;4.69;96.11
77572;BME280;67214;47.454;18.966;2024-03-08T05:42:25;100532.06;;;4.73;96.41
77572;BME280;67214;47.454;18.966;2024-03-08T05:44:54;100536.23;;;4.77;96.59
77572;BME280;67214;47.454;18.966;2024-03-08T05:47:22;100542.74;;;4.79;97.00
77572;BME280;67214;47.454;18.966;2024-03-08T05:49:49;100541.36;;;4.80;97.30
77572;BME280;67214;47.454;18.966;2024-03-08T05:52:15;100542.34;;;4.78;97.25
77572;BME280;67214;47.454;18.966;2024-03-08T05:54:42;100538.34;;;4.79;97.43
77572;BME280;67214;47.454;18.966;2024-03-08T05:57:09;100540.11;;;4.79;97.62
77572;BME280;67214;47.454;18.966;2024-03-08T05:59:36;100550.09;;;4.81;97.92
77572;BME280;67214;47.454;18.966;2024-03-08T06:02:03;100559.06;;;4.77;97.68
77572;BME280;67214;47.454;18.966;2024-03-08T06:04:30;100555.02;;;4.78;98.13
77572;BME280;67214;47.454;18.966;2024-03-08T06:06:57;100548.84;;;4.79;98.02
77572;BME280;67214;47.454;18.966;2024-03-08T06:09:24;100561.83;;;4.82;97.92
77572;BME280;67214;47.454;18.966;2024-03-08T06:11:51;100559.52;;;4.85;97.91
77572;BME280;67214;47.454;18.966;2024-03-08T06:14:19;100553.31;;;4.86;97.92
77572;BME280;67214;47.454;18.966;2024-03-08T06:16:46;100553.88;;;4.84;97.62
77572;BME280;67214;47.454;18.966;2024-03-08T06:19:15;100555.48;;;4.86;97.49
77572;BME280;67214;47.454;18.966;2024-03-08T06:21:41;100556.28;;;4.88;97.08
77572;BME280;67214;47.454;18.966;2024-03-08T06:24:08;100560.22;;;4.88;97.10
77572;BME280;67214;47.454;18.966;2024-03-08T06:26:35;100562.75;;;4.90;97.25
77572;BME280;67214;47.454;18.966;2024-03-08T06:29:03;100568.33;;;4.92;97.20
77572;BME280;67214;47.454;18.966;2024-03-08T06:31:32;100560.12;;;4.98;97.26
77572;BME280;67214;47.454;18.966;2024-03-08T06:33:58;100559.66;;;4.99;97.08
77572;BME280;67214;47.454;18.966;2024-03-08T06:36:25;100565.08;;;5.04;97.15
77572;BME280;67214;47.454;18.966;2024-03-08T06:38:52;100567.77;;;5.03;96.85
77572;BME280;67214;47.454;18.966;2024-03-08T06:41:19;100577.13;;;5.08;96.76
77572;BME280;67214;47.454;18.966;2024-03-08T06:43:46;100565.66;;;5.09;96.14
77572;BME280;67214;47.454;18.966;2024-03-08T06:46:15;100573.19;;;5.17;95.89
77572;BME280;67214;47.454;18.966;2024-03-08T06:48:42;100569.70;;;5.17;95.85
77572;BME280;67214;47.454;18.966;2024-03-08T06:51:08;100569.37;;;5.23;95.75
77572;BME280;67214;47.454;18.966;2024-03-08T06:53:36;100578.57;;;5.23;96.03
77572;BME280;67214;47.454;18.966;2024-03-08T06:56:04;100577.03;;;5.19;96.10
77572;BME280;67214;47.454;18.966;2024-03-08T06:58:30;100578.80;;;5.27;96.13
77572;BME280;67214;47.454;18.966;2024-03-08T07:00:58;100580.21;;;5.25;96.08
77572;BME280;67214;47.454;18.966;2024-03-08T07:03:26;100580.34;;;5.31;95.98
77572;BME280;67214;47.454;18.966;2024-03-08T07:05:55;100575.98;;;5.38;95.71
77572;BME280;67214;47.454;18.966;2024-03-08T07:08:24;100579.01;;;5.39;95.09
77572;BME280;67214;47.454;18.966;2024-03-08T07:10:53;100577.52;;;5.42;94.96
77572;BME280;67214;47.454;18.966;2024-03-08T07:13:20;100576.94;;;5.37;94.55
77572;BME280;67214;47.454;18.966;2024-03-08T07:15:47;100573.92;;;5.36;94.70
77572;BME280;67214;47.454;18.966;2024-03-08T07:18:13;100578.09;;;5.40;94.84
77572;BME280;67214;47.454;18.966;2024-03-08T07:20:41;100579.80;;;5.41;94.91
77572;BME280;67214;47.454;18.966;2024-03-08T07:23:09;100577.92;;;5.43;94.81
77572;BME280;67214;47.454;18.966;2024-03-08T07:25:36;100577.68;;;5.48;94.92
77572;BME280;67214;47.454;18.966;2024-03-08T07:28:04;100580.70;;;5.49;94.41
77572;BME280;67214;47.454;18.966;2024-03-08T07:30:32;100587.73;;;5.48;94.35
77572;BME280;67214;47.454;18.966;2024-03-08T07:33:12;100582.41;;;5.50;94.26
77572;BME280;67214;47.454;18.966;2024-03-08T07:35:39;100582.02;;;5.49;94.07
77572;BME280;67214;47.454;18.966;2024-03-08T07:38:07;100592.78;;;5.44;94.31
77572;BME280;67214;47.454;18.966;2024-03-08T07:40:39;100585.28;;;5.45;94.33
77572;BME280;67214;47.454;18.966;2024-03-08T07:43:08;100586.66;;;5.44;94.47
77572;BME280;67214;47.454;18.966;2024-03-08T07:45:40;100595.39;;;5.53;95.20
77572;BME280;67214;47.454;18.966;2024-03-08T07:48:04;100588.18;;;5.56;94.82
77572;BME280;67214;47.454;18.966;2024-03-08T07:50:33;100580.97;;;5.60;94.56
77572;BME280;67214;47.454;18.966;2024-03-08T07:53:01;100601.54;;;5.69;94.54
77572;BME280;67214;47.454;18.966;2024-03-08T07:55:29;100600.45;;;5.73;93.90
77572;BME280;67214;47.454;18.966;2024-03-08T07:57:57;100593.30;;;5.75;93.73
77572;BME280;67214;47.454;18.966;2024-03-08T08:00:24;100593.27;;;5.84;93.80
77572;BME280;67214;47.454;18.966;2024-03-08T08:02:52;100597.69;;;5.92;93.80
77572;BME280;67214;47.454;18.966;2024-03-08T08:05:19;100591.21;;;5.90;93.62
77572;BME280;67214;47.454;18.966;2024-03-08T08:07:46;100580.69;;;5.90;93.14
77572;BME280;67214;47.454;18.966;2024-03-08T08:10:12;100589.97;;;5.89;92.62
77572;BME280;67214;47.454;18.966;2024-03-08T08:12:48;100592.60;;;5.89;92.68
77572;BME280;67214;47.454;18.966;2024-03-08T08:15:15;100589.02;;;5.98;93.19
77572;BME280;67214;47.454;18.966;2024-03-08T08:17:42;100588.05;;;5.99;92.75
77572;BME280;67214;47.454;18.966;2024-03-08T08:20:12;100585.38;;;5.92;91.66
77572;BME280;67214;47.454;18.966;2024-03-08T08:22:39;100565.67;;;5.99;91.85
77572;BME280;67214;47.454;18.966;2024-03-08T08:25:08;100578.30;;;6.01;92.64
77572;BME280;67214;47.454;18.966;2024-03-08T08:27:34;100595.88;;;6.01;92.96
77572;BME280;67214;47.454;18.966;2024-03-08T08:30:03;100592.17;;;5.96;92.81
77572;BME280;67214;47.454;18.966;2024-03-08T08:34:57;100597.23;;;5.92;92.93
77572;BME280;67214;47.454;18.966;2024-03-08T08:37:25;100592.17;;;5.96;93.49
77572;BME280;67214;47.454;18.966;2024-03-08T08:39:51;100595.13;;;5.99;93.55
77572;BME280;67214;47.454;18.966;2024-03-08T08:42:18;100591.93;;;6.01;93.85
77572;BME280;67214;47.454;18.966;2024-03-08T08:44:45;100590.19;;;5.93;93.39
77572;BME280;67214;47.454;18.966;2024-03-08T08:47:12;100591.64;;;5.98;93.84
77572;BME280;67214;47.454;18.966;2024-03-08T08:49:38;100592.75;;;5.94;93.74
77572;BME280;67214;47.454;18.966;2024-03-08T08:52:05;100596.84;;;5.91;94.33
77572;BME280;67214;47.454;18.966;2024-03-08T08:54:33;100590.19;;;5.93;94.70
77572;BME280;67214;47.454;18.966;2024-03-08T08:56:59;100592.64;;;5.96;94.74
77572;BME280;67214;47.454;18.966;2024-03-08T08:59:28;100595.06;;;5.92;95.29
77572;BME280;67214;47.454;18.966;2024-03-08T09:01:56;100585.28;;;6.02;95.16
77572;BME280;67214;47.454;18.966;2024-03-08T09:04:23;100589.05;;;6.05;94.94
77572;BME280;67214;47.454;18.966;2024-03-08T09:06:50;100591.05;;;6.09;94.53
77572;BME280;67214;47.454;18.966;2024-03-08T09:09:16;100593.61;;;6.11;94.41
77572;BME280;67214;47.454;18.966;2024-03-08T09:11:43;100587.27;;;6.22;94.61
77572;BME280;67214;47.454;18.966;2024-03-08T09:14:11;100589.08;;;6.28;94.73
77572;BME280;67214;47.454;18.966;2024-03-08T09:16:38;100590.71;;;6.31;94.51
77572;BME280;67214;47.454;18.966;2024-03-08T09:19:05;100588.64;;;6.36;95.19
77572;BME280;67214;47.454;18.966;2024-03-08T09:21:33;100587.28;;;6.44;94.79
77572;BME280;67214;47.454;18.966;2024-03-08T09:24:01;100585.81;;;6.47;94.63
77572;BME280;67214;47.454;18.966;2024-03-08T09:26:28;100575.84;;;6.52;93.34
77572;BME280;67214;47.454;18.966;2024-03-08T09:28:54;100582.09;;;6.59;93.43
77572;BME280;67214;47.454;18.966;2024-03-08T09:31:21;100596.32;;;6.63;93.50
77572;BME280;67214;47.454;18.966;2024-03-08T09:33:48;100594.08;;;6.64;93.56
77572;BME280;67214;47.454;18.966;2024-03-08T09:36:16;100589.27;;;6.64;93.33
77572;BME280;67214;47.454;18.966;2024-03-08T09:38:43;100594.64;;;6.46;92.17
77572;BME280;67214;47.454;18.966;2024-03-08T09:41:10;100592.24;;;6.58;92.82
77572;BME280;67214;47.454;18.966;2024-03-08T09:43:36;100594.33;;;6.60;91.92
77572;BME280;67214;47.454;18.966;2024-03-08T09:46:04;100591.26;;;6.67;92.11
77572;BME280;67214;47.454;18.966;2024-03-08T09:48:32;100586.58;;;6.72;91.91
77572;BME280;67214;47.454;18.966;2024-03-08T09:51:00;100597.14;;;6.79;91.50
77572;BME280;67214;47.454;18.966;2024-03-08T09:53:27;100594.13;;;6.85;91.10
77572;BME280;67214;47.454;18.966;2024-03-08T09:55:53;100591.16;;;6.91;90.01
77572;BME280;67214;47.454;18.966;2024-03-08T09:58:21;100592.86;;;6.92;89.82
77572;BME280;67214;47.454;18.966;2024-03-08T10:00:55;100591.89;;;6.93;89.57
77572;BME280;67214;47.454;18.966;2024-03-08T10:03:23;100591.22;;;6.83;90.15
77572;BME280;67214;47.454;18.966;2024-03-08T10:05:51;100592.28;;;6.94;90.11
77572;BME280;67214;47.454;18.966;2024-03-08T10:08:20;100598.02;;;6.94;89.67
77572;BME280;67214;47.454;18.966;2024-03-08T10:10:47;100584.17;;;6.90;89.56
77572;BME280;67214;47.454;18.966;2024-03-08T10:13:15;100575.06;;;6.96;89.66
77572;BME280;67214;47.454;18.966;2024-03-08T10:15:43;100595.51;;;6.99;89.44
77572;BME280;67214;47.454;18.966;2024-03-08T10:18:10;100599.34;;;6.94;89.26
77572;BME280;67214;47.454;18.966;2024-03-08T10:20:37;100595.30;;;6.95;88.94
77572;BME280;67214;47.454;18.966;2024-03-08T10:23:04;100593.05;;;6.96;89.25
77572;BME280;67214;47.454;18.966;2024-03-08T10:25:32;100586.95;;;7.10;89.12
77572;BME280;67214;47.454;18.966;2024-03-08T10:27:59;100591.03;;;7.23;88.47
77572;BME280;67214;47.454;18.966;2024-03-08T10:30:29;100595.95;;;7.29;87.80
77572;BME280;67214;47.454;18.966;2024-03-08T10:32:56;100592.00;;;7.36;87.27
77572;BME280;67214;47.454;18.966;2024-03-08T10:35:24;100584.38;;;7.45;87.49
77572;BME280;67214;47.454;18.966;2024-03-08T10:37:52;100592.02;;;7.57;87.21
77572;BME280;67214;47.454;18.966;2024-03-08T10:40:20;100593.53;;;7.61;85.85
77572;BME280;67214;47.454;18.966;2024-03-08T10:42:55;100581.24;;;7.46;84.65
77572;BME280;67214;47.454;18.966;2024-03-08T10:45:38;100574.38;;;7.43;85.28
77572;BME280;67214;47.454;18.966;2024-03-08T10:48:13;100576.08;;;7.37;85.70
77572;BME280;67214;47.454;18.966;2024-03-08T10:50:36;100579.93;;;7.32;85.88
77572;BME280;67214;47.454;18.966;2024-03-08T10:53:05;100578.42;;;7.35;85.55
77572;BME280;67214;47.454;18.966;2024-03-08T10:55:33;100580.98;;;7.29;86.86
77572;BME280;67214;47.454;18.966;2024-03-08T10:58:00;100573.03;;;7.22;87.55
77572;BME280;67214;47.454;18.966;2024-03-08T11:00:26;100579.70;;;7.14;88.17
77572;BME280;67214;47.454;18.966;2024-03-08T11:02:53;100583.66;;;7.14;88.28
77572;BME280;67214;47.454;18.966;2024-03-08T11:05:35;100575.55;;;7.10;88.65
77572;BME280;67214;47.454;18.966;2024-03-08T11:08:01;100579.03;;;7.10;88.04
77572;BME280;67214;47.454;18.966;2024-03-08T11:10:29;100579.62;;;7.15;87.89
77572;BME280;67214;47.454;18.966;2024-03-08T11:12:56;100576.98;;;7.15;88.33
77572;BME280;67214;47.454;18.966;2024-03-08T11:15:24;100575.39;;;7.20;88.73
77572;BME280;67214;47.454;18.966;2024-03-08T11:17:51;100575.94;;;7.18;87.50
77572;BME280;67214;47.454;18.966;2024-03-08T11:20:19;100575.28;;;7.14;87.71
77572;BME280;67214;47.454;18.966;2024-03-08T11:22:51;100568.33;;;7.13;88.71
77572;BME280;67214;47.454;18.966;2024-03-08T11:25:31;100573.95;;;7.14;88.99
77572;BME280;67214;47.454;18.966;2024-03-08T11:30:44;100569.20;;;7.49;87.97
77572;BME280;67214;47.454;18.966;2024-03-08T11:33:12;100560.05;;;7.76;87.38
77572;BME280;67214;47.454;18.966;2024-03-08T11:35:39;100554.24;;;8.05;86.13
77572;BME280;67214;47.454;18.966;2024-03-08T11:38:07;100553.26;;;8.27;84.98
77572;BME280;67214;47.454;18.966;2024-03-08T11:40:34;100543.59;;;8.47;83.33
77572;BME280;67214;47.454;18.966;2024-03-08T11:43:02;100543.81;;;8.57;82.50
77572;BME280;67214;47.454;18.966;2024-03-08T11:45:30;100537.58;;;8.58;81.44
77572;BME280;67214;47.454;18.966;2024-03-08T11:47:57;100540.52;;;8.73;82.52
77572;BME280;67214;47.454;18.966;2024-03-08T11:50:23;100543.95;;;8.88;81.02
77572;BME280;67214;47.454;18.966;2024-03-08T11:52:50;100538.63;;;9.07;79.16
77572;BME280;67214;47.454;18.966;2024-03-08T11:55:17;100533.81;;;9.57;78.60
77572;BME280;67214;47.454;18.966;2024-03-08T11:57:44;100526.77;;;10.00;76.24
77572;BME280;67214;47.454;18.966;2024-03-08T12:00:14;100527.75;;;10.17;75.00
77572;BME280;67214;47.454;18.966;2024-03-08T12:02:43;100525.29;;;10.27;73.90
77572;BME280;67214;47.454;18.966;2024-03-08T12:05:12;100519.95;;;10.21;73.35
77572;BME280;67214;47.454;18.966;2024-03-08T12:07:40;100515.13;;;10.08;73.50
77572;BME280;67214;47.454;18.966;2024-03-08T12:10:18;100521.90;;;10.12;72.92
77572;BME280;67214;47.454;18.966;2024-03-08T12:12:45;100523.70;;;10.11;72.83
77572;BME280;67214;47.454;18.966;2024-03-08T12:15:14;100520.52;;;10.01;71.28
77572;BME280;67214;47.454;18.966;2024-03-08T12:17:41;100519.75;;;9.93;71.85
77572;BME280;67214;47.454;18.966;2024-03-08T12:20:18;100514.17;;;9.91;72.20
77572;BME280;67214;47.454;18.966;2024-03-08T12:22:41;100514.43;;;9.75;73.32
77572;BME280;67214;47.454;18.966;2024-03-08T12:25:08;100520.38;;;9.66;73.73
77572;BME280;67214;47.454;18.966;2024-03-08T12:27:37;100516.34;;;9.42;74.75
77572;BME280;67214;47.454;18.966;2024-03-08T12:32:47;100514.12;;;8.98;75.29
77572;BME280;67214;47.454;18.966;2024-03-08T12:35:14;100503.79;;;8.75;75.82
77572;BME280;67214;47.454;18.966;2024-03-08T12:37:42;100512.73;;;8.60;76.59
77572;BME280;67214;47.454;18.966;2024-03-08T12:40:11;100512.52;;;8.51;77.20
77572;BME280;67214;47.454;18.966;2024-03-08T12:42:39;100513.88;;;8.36;78.56
77572;BME280;67214;47.454;18.966;2024-03-08T12:45:06;100518.61;;;8.31;78.32
77572;BME280;67214;47.454;18.966;2024-03-08T12:47:34;100512.86;;;8.25;79.47
77572;BME280;67214;47.454;18.966;2024-03-08T12:50:01;100511.95;;;8.19;79.81
77572;BME280;67214;47.454;18.966;2024-03-08T12:52:29;100509.95;;;8.15;79.43
77572;BME280;67214;47.454;18.966;2024-03-08T12:54:56;100507.08;;;8.06;80.29
77572;BME280;67214;47.454;18.966;2024-03-08T12:57:22;100502.01;;;8.03;80.16
77572;BME280;67214;47.454;18.966;2024-03-08T12:59:51;100499.66;;;7.98;80.92